Terminal Aerodrome Forecast
Issued by NWS

Home | Current Version | Previous Version | Text Only | Print | Product List | Glossary On
Versions: 1 2 3 4 5 6 7 8 9 10 11 12 13 14 15 16 17 18
000
FTUS43 KDTX 230533
TAFDET
TAF
KDET 230533Z 2306/2406 22010KT 6SM BR OVC025 WS015/24045KT
      TEMPO 2309/2313 4SM -SHRA
     FM231300 18007KT 4SM -RA BR OVC025
     FM231900 16010KT 4SM -RA BR OVC015
     FM240000 14010KT 2SM RA BR OVC006=

USA.gov is the U.S. government's official web portal to all federal, state and local government web resources and services.